createdAt,value
2019-05-02T00:00:51.716Z,40.90
2019-05-02T00:02:51.637Z,43.30
2019-05-02T00:04:55.976Z,41.00
2019-05-02T00:05:51.952Z,43.80
2019-05-02T00:06:50.489Z,42.00
2019-05-02T00:08:51.608Z,42.80
2019-05-02T00:10:51.567Z,43.70
2019-05-02T00:12:51.536Z,44.80
2019-05-02T00:13:52.280Z,41.80
2019-05-02T00:14:50.380Z,42.40
2019-05-02T00:15:52.334Z,39.90
2019-05-02T00:16:50.507Z,40.80
2019-05-02T00:19:51.447Z,45.10
2019-05-02T00:20:52.430Z,42.80
2019-05-02T00:21:50.331Z,45.30
2019-05-02T00:22:53.483Z,47.00
2019-05-02T00:23:50.288Z,46.30
2019-05-02T00:24:52.563Z,44.70
2019-05-02T00:25:52.606Z,44.20
2019-05-02T00:26:56.066Z,43.60
2019-05-02T00:27:51.215Z,44.40
2019-05-02T00:28:52.807Z,44.10
2019-05-02T00:29:53.920Z,43.30
2019-05-02T00:30:51.229Z,45.00
2019-05-02T00:31:53.052Z,42.70
2019-05-02T00:32:53.229Z,42.50
2019-05-02T00:33:53.146Z,41.50
2019-05-02T00:34:50.140Z,42.00
2019-05-02T00:36:51.405Z,42.60
2019-05-02T00:38:51.231Z,42.50
2019-05-02T00:40:51.226Z,42.20
2019-05-02T00:41:53.527Z,42.40
2019-05-02T00:42:53.366Z,40.90
2019-05-02T00:43:54.537Z,43.00
2019-05-02T00:44:50.037Z,42.40
2019-05-02T00:46:51.246Z,43.90
2019-05-02T00:48:54.037Z,41.30
2019-05-02T00:49:51.000Z,43.20
2019-05-02T00:51:51.099Z,43.20
2019-05-02T00:52:53.925Z,45.40
2019-05-02T00:53:49.936Z,44.00
2019-05-02T00:55:49.944Z,41.90
2019-05-02T00:56:54.042Z,41.40
2019-05-02T00:57:50.832Z,42.40
2019-05-02T00:58:55.896Z,42.00
2019-05-02T00:59:49.879Z,41.20
2019-05-02T01:00:53.171Z,43.50
2019-05-02T01:01:49.888Z,45.00
2019-05-02T01:02:50.915Z,43.40
2019-05-02T01:03:52.084Z,44.40
2019-05-02T01:04:49.873Z,43.90
2019-05-02T01:05:49.821Z,44.30
2019-05-02T01:06:50.811Z,41.60
2019-05-02T01:07:49.824Z,39.80
2019-05-02T01:08:49.896Z,42.20
2019-05-02T01:09:49.762Z,40.90
2019-05-02T01:10:52.128Z,41.80
2019-05-02T01:11:50.748Z,40.80
2019-05-02T01:12:49.856Z,41.20
2019-05-02T01:13:50.229Z,42.70
2019-05-02T01:15:49.721Z,41.80
2019-05-02T01:16:54.442Z,43.30
2019-05-02T01:17:50.714Z,40.40
2019-05-02T01:18:49.797Z,42.00
2019-05-02T01:19:51.448Z,42.40
2019-05-02T01:20:49.805Z,42.40
2019-05-02T01:21:49.639Z,41.60
2019-05-02T01:22:52.240Z,41.80
2019-05-02T01:23:49.621Z,42.00
2019-05-02T01:24:49.753Z,40.50
2019-05-02T01:25:52.762Z,40.40
2019-05-02T01:26:49.615Z,42.60
2019-05-02T01:27:49.651Z,41.90
2019-05-02T01:28:54.334Z,42.60
2019-05-02T01:29:50.556Z,42.90
2019-05-02T01:30:49.652Z,42.00
2019-05-02T01:31:49.924Z,40.30
2019-05-02T01:32:49.573Z,40.10
2019-05-02T01:33:49.587Z,41.50
2019-05-02T01:34:54.310Z,40.30
2019-05-02T01:35:50.484Z,39.10
2019-05-02T01:36:49.586Z,39.90
2019-05-02T01:37:51.057Z,42.30
2019-05-02T01:38:50.547Z,42.70
2019-05-02T01:39:49.448Z,39.80
2019-05-02T01:40:53.226Z,41.20
2019-05-02T01:41:50.424Z,42.60
2019-05-02T01:42:51.055Z,43.50
2019-05-02T01:43:49.433Z,40.80
2019-05-02T01:44:49.465Z,40.30
2019-05-02T01:45:49.380Z,42.50
2019-05-02T01:46:49.493Z,42.90
2019-05-02T01:47:49.362Z,44.10
2019-05-02T01:48:49.492Z,43.60
2019-05-02T01:49:51.999Z,42.10
2019-05-02T01:50:50.432Z,46.10
2019-05-02T01:51:49.418Z,47.00
2019-05-02T01:52:49.404Z,43.80
2019-05-02T01:53:49.434Z,45.20
2019-05-02T01:54:49.414Z,46.50
2019-05-02T01:55:51.945Z,50.40
2019-05-02T01:56:50.354Z,48.80
2019-05-02T01:57:49.250Z,51.00
2019-05-02T01:58:52.979Z,50.40
2019-05-02T01:59:50.281Z,52.70
2019-05-02T02:00:49.359Z,51.20
2019-05-02T02:01:53.225Z,50.60
2019-05-02T02:02:50.264Z,49.50
2019-05-02T02:03:49.251Z,51.20
2019-05-02T02:04:52.107Z,50.60
2019-05-02T02:05:50.220Z,51.40
2019-05-02T02:06:49.166Z,48.30
2019-05-02T02:07:50.883Z,49.50
2019-05-02T02:08:50.196Z,49.80
2019-05-02T02:09:50.289Z,50.80
2019-05-02T02:10:50.705Z,50.90
2019-05-02T02:11:50.128Z,50.50
2019-05-02T02:13:02.748Z,49.90
2019-05-02T02:13:50.077Z,49.60
2019-05-02T02:14:53.368Z,49.70
2019-05-02T02:15:50.084Z,49.80
2019-05-02T02:16:49.168Z,48.30
2019-05-02T02:17:51.495Z,47.00
2019-05-02T02:18:49.071Z,47.70
2019-05-02T02:19:49.051Z,49.30
2019-05-02T02:20:50.207Z,49.90
2019-05-02T02:21:49.001Z,48.90
2019-05-02T02:22:49.089Z,47.80
2019-05-02T02:23:49.756Z,47.00
2019-05-02T02:24:49.024Z,47.70
2019-05-02T02:25:48.947Z,48.60
2019-05-02T02:26:49.930Z,49.60
2019-05-02T02:27:48.928Z,47.50
2019-05-02T02:28:49.040Z,49.40
2019-05-02T02:29:48.975Z,48.40
2019-05-02T02:30:48.962Z,48.60
2019-05-02T02:31:48.938Z,48.70
2019-05-02T02:32:48.957Z,51.50
2019-05-02T02:33:49.917Z,49.20
2019-05-02T02:34:49.111Z,48.10
2019-05-02T02:35:50.487Z,48.70
2019-05-02T02:36:48.887Z,49.70
2019-05-02T02:37:55.459Z,49.30
2019-05-02T02:38:49.913Z,51.80
2019-05-02T02:39:53.971Z,49.50
2019-05-02T02:40:49.853Z,50.40
2019-05-02T02:41:52.395Z,48.90
2019-05-02T02:42:49.863Z,48.00
2019-05-02T02:43:48.760Z,47.60
2019-05-02T02:44:48.831Z,49.10
2019-05-02T02:45:51.890Z,49.50
2019-05-02T02:46:49.792Z,49.20
2019-05-02T02:47:52.967Z,50.80
2019-05-02T02:48:49.713Z,51.30
2019-05-02T02:49:48.761Z,51.20
2019-05-02T02:50:48.712Z,49.60
2019-05-02T02:51:48.802Z,49.50
2019-05-02T02:52:48.671Z,49.20
2019-05-02T02:53:48.685Z,49.20
2019-05-02T02:54:48.655Z,47.30
2019-05-02T02:55:48.699Z,47.80
2019-05-02T02:56:48.676Z,49.30
2019-05-02T02:57:48.731Z,46.80
2019-05-02T02:58:48.621Z,48.50
2019-05-02T02:59:48.664Z,49.40
2019-05-02T03:00:49.387Z,49.40
2019-05-02T03:01:48.664Z,49.30
2019-05-02T03:02:50.084Z,49.70
2019-05-02T03:03:48.674Z,46.20
2019-05-02T03:04:48.550Z,43.50
2019-05-02T03:05:48.587Z,45.50
2019-05-02T03:06:48.565Z,43.40
2019-05-02T03:07:48.572Z,44.60
2019-05-02T03:08:49.248Z,44.60
2019-05-02T03:09:48.751Z,44.40
2019-05-02T03:10:48.499Z,43.30
2019-05-02T03:11:48.632Z,43.00
2019-05-02T03:12:48.440Z,43.00
2019-05-02T03:13:52.386Z,44.30
2019-05-02T03:14:49.589Z,44.60
2019-05-02T03:15:48.532Z,45.50
2019-05-02T03:16:49.521Z,45.30
2019-05-02T03:17:48.447Z,45.50
2019-05-02T03:18:48.393Z,45.30
2019-05-02T03:20:49.494Z,46.20
2019-05-02T03:21:54.239Z,47.10
2019-05-02T03:22:49.339Z,47.80
2019-05-02T03:23:48.404Z,47.20
2019-05-02T03:24:48.319Z,47.80
2019-05-02T03:25:51.256Z,47.30
2019-05-02T03:26:48.641Z,47.50
2019-05-02T03:27:49.372Z,47.20
2019-05-02T03:28:57.692Z,46.10
2019-05-02T03:29:49.266Z,46.60
2019-05-02T03:30:48.328Z,47.50
2019-05-02T03:31:48.276Z,48.40
2019-05-02T03:33:02.806Z,49.40
2019-05-02T03:33:56.529Z,49.20
2019-05-02T03:34:53.409Z,47.70
2019-05-02T03:35:49.379Z,48.80
2019-05-02T03:36:48.195Z,48.30
2019-05-02T03:37:51.348Z,46.70
2019-05-02T03:38:48.177Z,48.10
2019-05-02T03:39:56.960Z,49.00
2019-05-02T03:40:49.144Z,48.70
2019-05-02T03:41:48.198Z,50.70
2019-05-02T03:42:48.178Z,48.60
2019-05-02T03:43:48.237Z,49.10
2019-05-02T03:44:55.121Z,47.60
2019-05-02T03:45:49.170Z,47.30
2019-05-02T03:46:54.437Z,48.90
2019-05-02T03:47:49.114Z,48.90
2019-05-02T03:48:48.147Z,48.00
2019-05-02T03:49:49.426Z,48.50
2019-05-02T03:50:48.154Z,49.20
2019-05-02T03:51:48.076Z,49.60
2019-05-02T03:52:48.104Z,48.30
2019-05-02T03:53:48.016Z,48.70
2019-05-02T03:54:50.181Z,47.90
2019-05-02T03:55:48.028Z,47.80
2019-05-02T03:56:51.166Z,48.40
2019-05-02T03:57:48.018Z,48.90
2019-05-02T03:58:55.442Z,48.00
2019-05-02T03:59:48.942Z,47.90
2019-05-02T04:00:48.057Z,49.70
2019-05-02T04:01:47.925Z,49.00
2019-05-02T04:02:59.131Z,48.40
2019-05-02T04:03:48.907Z,47.20
2019-05-02T04:04:54.497Z,48.30
2019-05-02T04:05:48.885Z,48.30
2019-05-02T04:06:47.998Z,49.00
2019-05-02T04:07:47.911Z,48.10
2019-05-02T04:08:58.684Z,47.30
2019-05-02T04:09:48.851Z,48.80
2019-05-02T04:10:52.727Z,49.60
2019-05-02T04:11:48.821Z,47.90
2019-05-02T04:12:53.227Z,47.40
2019-05-02T04:13:48.841Z,47.60
2019-05-02T04:14:47.835Z,47.60
2019-05-02T04:15:47.786Z,47.20
2019-05-02T04:16:48.697Z,48.60
2019-05-02T04:17:48.757Z,46.30
2019-05-02T04:18:55.702Z,47.60
2019-05-02T04:19:48.777Z,46.30
2019-05-02T04:20:49.741Z,45.30
2019-05-02T04:21:52.542Z,47.00
2019-05-02T04:22:50.678Z,48.00
2019-05-02T04:23:47.715Z,46.80
2019-05-02T04:24:54.642Z,48.00
2019-05-02T04:25:48.664Z,45.50
2019-05-02T04:26:53.618Z,45.10
2019-05-02T04:27:48.671Z,45.90
2019-05-02T04:28:51.754Z,45.40
2019-05-02T04:29:47.665Z,43.20
2019-05-02T04:30:51.083Z,44.90
2019-05-02T04:31:48.602Z,44.60
2019-05-02T04:32:49.623Z,45.20
2019-05-02T04:33:48.638Z,43.30
2019-05-02T04:34:54.554Z,46.20
2019-05-02T04:35:48.555Z,46.20
2019-05-02T04:36:59.864Z,47.80
2019-05-02T04:37:48.551Z,46.30
2019-05-02T04:38:51.705Z,46.90
2019-05-02T04:39:49.116Z,48.20
2019-05-02T04:40:49.562Z,48.20
2019-05-02T04:41:48.637Z,48.30
2019-05-02T04:42:53.341Z,49.40
2019-05-02T04:43:57.420Z,47.70
2019-05-02T04:45:11.855Z,48.10
2019-05-02T04:45:56.197Z,47.90
2019-05-02T04:46:49.013Z,47.50
2019-05-02T04:47:57.529Z,48.60
2019-05-02T04:48:52.089Z,47.30
2019-05-02T04:49:51.554Z,46.60
2019-05-02T04:50:48.833Z,49.70
2019-05-02T04:51:57.365Z,48.00
2019-05-02T04:52:53.893Z,50.10
2019-05-02T04:53:49.875Z,48.10
2019-05-02T04:54:48.777Z,48.80
2019-05-02T04:55:52.063Z,49.50
2019-05-02T04:56:53.451Z,45.60
2019-05-02T04:57:51.010Z,49.30
2019-05-02T04:58:49.547Z,47.40
2019-05-02T04:59:50.132Z,48.70
2019-05-02T05:00:54.080Z,47.20
2019-05-02T05:01:56.633Z,47.30
2019-05-02T05:02:50.993Z,47.90
2019-05-02T05:03:51.309Z,46.80
2019-05-02T05:04:49.469Z,47.10
2019-05-02T05:05:48.225Z,48.20
2019-05-02T05:06:56.082Z,48.90
2019-05-02T05:07:49.506Z,48.20
2019-05-02T05:08:48.250Z,48.40
2019-05-02T05:09:57.157Z,47.60
2019-05-02T05:10:48.216Z,46.70
2019-05-02T05:11:48.194Z,47.30
2019-05-02T05:12:48.021Z,49.60
2019-05-02T05:13:47.901Z,48.60
2019-05-02T05:14:47.457Z,47.00
2019-05-02T05:15:51.288Z,49.70
2019-05-02T05:16:51.754Z,47.40
2019-05-02T05:17:50.049Z,48.30
2019-05-02T05:18:49.357Z,48.90
2019-05-02T05:19:48.735Z,48.00
2019-05-02T05:20:53.054Z,49.40
2019-05-02T05:21:48.064Z,48.90
2019-05-02T05:22:47.924Z,51.80
2019-05-02T05:23:47.210Z,50.90
2019-05-02T05:24:47.707Z,49.90
2019-05-02T05:25:47.931Z,50.00
2019-05-02T05:26:47.647Z,51.40
2019-05-02T05:27:47.914Z,50.20
2019-05-02T05:28:47.657Z,50.20
2019-05-02T05:29:48.619Z,51.10
2019-05-02T05:30:49.670Z,50.60
2019-05-02T05:31:48.333Z,50.30
2019-05-02T05:32:47.878Z,52.20
2019-05-02T05:33:47.875Z,49.70
2019-05-02T05:34:47.836Z,49.80
2019-05-02T05:35:48.821Z,48.50
2019-05-02T05:36:48.258Z,48.10
2019-05-02T05:37:49.019Z,49.00
2019-05-02T05:38:47.968Z,46.90
2019-05-02T05:39:48.711Z,50.20
2019-05-02T05:40:50.129Z,48.80
2019-05-02T05:41:50.498Z,48.00
2019-05-02T05:42:48.183Z,48.20
2019-05-02T05:43:49.994Z,47.80
2019-05-02T05:44:48.406Z,48.80
2019-05-02T05:45:53.526Z,48.50
2019-05-02T05:46:49.529Z,48.20
2019-05-02T05:47:47.891Z,47.30
2019-05-02T05:48:47.618Z,46.90
2019-05-02T05:49:47.722Z,47.80
2019-05-02T05:50:47.799Z,46.80
2019-05-02T05:51:47.724Z,47.60
2019-05-02T05:52:47.255Z,44.90
2019-05-02T05:53:47.880Z,48.50
2019-05-02T05:54:47.400Z,47.90
2019-05-02T05:55:47.337Z,48.50
2019-05-02T05:56:48.128Z,46.90
2019-05-02T05:57:49.745Z,47.00
2019-05-02T05:58:48.131Z,45.00
2019-05-02T05:59:48.468Z,45.30
2019-05-02T06:00:53.829Z,47.00
2019-05-02T06:01:48.398Z,46.00
2019-05-02T06:02:53.847Z,45.30
2019-05-02T06:03:47.631Z,46.20
2019-05-02T06:04:47.390Z,45.70
2019-05-02T06:05:47.722Z,46.60
2019-05-02T06:06:47.976Z,47.00
2019-05-02T06:07:47.415Z,45.20
2019-05-02T06:08:49.235Z,46.50
2019-05-02T06:09:47.528Z,45.60
2019-05-02T06:10:46.576Z,46.40
2019-05-02T06:11:50.788Z,45.00
2019-05-02T06:12:46.604Z,45.80
2019-05-02T06:13:48.823Z,44.90
2019-05-02T06:14:46.688Z,45.80
2019-05-02T06:15:46.456Z,46.40
2019-05-02T06:16:51.292Z,47.20
2019-05-02T06:17:47.469Z,48.00
2019-05-02T06:18:46.561Z,50.00
2019-05-02T06:19:48.277Z,50.70
2019-05-02T06:20:47.480Z,49.80
2019-05-02T06:21:46.789Z,49.70
2019-05-02T06:22:46.460Z,50.60
2019-05-02T06:23:46.373Z,48.80
2019-05-02T06:24:50.950Z,49.00
2019-05-02T06:25:47.366Z,49.20
2019-05-02T06:26:49.732Z,47.60
2019-05-02T06:27:47.338Z,48.30
2019-05-02T06:28:46.408Z,47.70
2019-05-02T06:29:46.324Z,46.30
2019-05-02T06:30:46.416Z,48.20
2019-05-02T06:31:46.296Z,48.10
2019-05-02T06:32:50.136Z,50.80
2019-05-02T06:33:47.279Z,50.00
2019-05-02T06:34:47.603Z,51.20
2019-05-02T06:35:46.258Z,51.00
2019-05-02T06:36:46.351Z,51.40
2019-05-02T06:37:49.965Z,50.30
2019-05-02T06:38:47.289Z,50.30
2019-05-02T06:39:46.254Z,50.90
2019-05-02T06:40:46.626Z,51.50
2019-05-02T06:41:46.181Z,50.80
2019-05-02T06:42:46.321Z,51.80
2019-05-02T06:43:48.181Z,51.70
2019-05-02T06:44:46.251Z,50.50
2019-05-02T06:45:46.143Z,51.10
2019-05-02T06:46:46.233Z,52.60
2019-05-02T06:47:46.150Z,51.10
2019-05-02T06:48:48.262Z,51.80
2019-05-02T06:49:47.082Z,51.90
2019-05-02T06:50:46.137Z,51.60
2019-05-02T06:51:46.073Z,50.20
2019-05-02T06:52:46.196Z,52.40
2019-05-02T06:53:46.944Z,55.10
2019-05-02T06:54:46.083Z,52.50
2019-05-02T06:55:46.025Z,53.10
2019-05-02T06:56:47.903Z,53.60
2019-05-02T06:57:46.033Z,53.50
2019-05-02T06:58:46.139Z,56.50
2019-05-02T06:59:50.063Z,55.80
2019-05-02T07:00:58.050Z,55.90
2019-05-02T07:01:46.948Z,55.50
2019-05-02T07:02:46.022Z,52.90
2019-05-02T07:03:47.450Z,55.50
2019-05-02T07:04:46.047Z,52.60
2019-05-02T07:05:48.873Z,54.70
2019-05-02T07:06:58.269Z,51.70
2019-05-02T07:07:46.997Z,50.90
2019-05-02T07:08:46.124Z,53.30
2019-05-02T07:09:45.879Z,52.20
2019-05-02T07:10:45.987Z,49.60
2019-05-02T07:11:56.626Z,51.90
2019-05-02T07:12:51.276Z,50.60
2019-05-02T07:13:46.852Z,51.00
2019-05-02T07:14:45.948Z,50.70
2019-05-02T07:15:48.350Z,51.20
2019-05-02T07:16:49.715Z,50.80
2019-05-02T07:17:46.779Z,51.40
2019-05-02T07:18:47.637Z,51.00
2019-05-02T07:19:45.766Z,51.80
2019-05-02T07:20:45.845Z,52.90
2019-05-02T07:21:45.762Z,52.60
2019-05-02T07:22:45.890Z,53.00
2019-05-02T07:23:48.694Z,55.10
2019-05-02T07:24:46.805Z,53.60
2019-05-02T07:25:45.693Z,52.90
2019-05-02T07:26:45.774Z,55.20
2019-05-02T07:27:45.671Z,53.10
2019-05-02T07:28:47.471Z,56.80
2019-05-02T07:29:45.667Z,54.50
2019-05-02T07:30:45.717Z,55.10
2019-05-02T07:31:47.676Z,55.60
2019-05-02T07:32:45.718Z,54.20
2019-05-02T07:33:45.613Z,53.50
2019-05-02T07:34:48.167Z,53.50
2019-05-02T07:35:45.615Z,51.00
2019-05-02T07:36:45.647Z,52.80
2019-05-02T07:37:48.729Z,53.20
2019-05-02T07:38:45.664Z,52.20
2019-05-02T07:39:45.623Z,52.00
2019-05-02T07:40:48.167Z,53.50
2019-05-02T07:41:45.564Z,53.00
2019-05-02T07:42:45.605Z,51.50
2019-05-02T07:43:45.594Z,51.20
2019-05-02T07:44:45.633Z,48.80
2019-05-02T07:45:46.539Z,47.60
2019-05-02T07:46:51.961Z,49.80
2019-05-02T07:47:46.454Z,45.50
2019-05-02T07:48:48.696Z,46.90
2019-05-02T07:49:46.463Z,46.00
2019-05-02T07:50:46.423Z,46.40
2019-05-02T07:51:45.443Z,47.40
2019-05-02T07:52:45.478Z,48.80
2019-05-02T07:53:48.589Z,40.90
2019-05-02T07:54:45.575Z,42.70
2019-05-02T07:55:45.374Z,41.50
2019-05-02T07:56:48.713Z,43.30
2019-05-02T07:57:45.361Z,41.50
2019-05-02T07:58:47.990Z,41.20
2019-05-02T07:59:45.359Z,44.10
2019-05-02T08:00:45.399Z,44.80
2019-05-02T08:01:49.665Z,43.40
2019-05-02T08:02:46.339Z,47.40
2019-05-02T08:03:45.279Z,47.50
2019-05-02T08:04:45.354Z,47.00
2019-05-02T08:05:45.299Z,47.70
2019-05-02T08:06:46.468Z,48.10
2019-05-02T08:07:45.237Z,48.20
2019-05-02T08:08:45.356Z,48.80
2019-05-02T08:09:45.380Z,47.70
2019-05-02T08:10:45.416Z,47.60
2019-05-02T08:11:45.198Z,47.20
2019-05-02T08:12:45.277Z,47.50
2019-05-02T08:13:49.580Z,48.30
2019-05-02T08:14:46.202Z,47.30
2019-05-02T08:15:50.271Z,47.60
2019-05-02T08:16:46.212Z,48.90
2019-05-02T08:17:53.162Z,45.50
2019-05-02T08:18:46.128Z,47.30
2019-05-02T08:19:45.221Z,47.40
2019-05-02T08:20:45.120Z,45.70
2019-05-02T08:21:45.143Z,45.70
2019-05-02T08:22:48.954Z,45.50
2019-05-02T08:23:46.187Z,45.30
2019-05-02T08:24:45.067Z,45.10
2019-05-02T08:25:45.396Z,44.30
2019-05-02T08:26:45.062Z,45.70
2019-05-02T08:27:45.113Z,47.20
2019-05-02T08:28:47.061Z,46.00
2019-05-02T08:29:46.125Z,44.40
2019-05-02T08:30:45.210Z,44.70
2019-05-02T08:31:45.145Z,44.40
2019-05-02T08:32:44.969Z,44.00
2019-05-02T08:33:45.013Z,44.80
2019-05-02T08:34:46.136Z,47.00
2019-05-02T08:35:45.988Z,48.30
2019-05-02T08:36:44.915Z,47.40
2019-05-02T08:37:44.948Z,50.30
2019-05-02T08:38:48.896Z,50.30
2019-05-02T08:39:45.888Z,50.30
2019-05-02T08:40:47.813Z,49.20
2019-05-02T08:41:44.896Z,48.50
2019-05-02T08:42:45.031Z,49.60
2019-05-02T08:43:46.035Z,50.20
2019-05-02T08:44:51.146Z,51.10
2019-05-02T08:45:45.821Z,49.80
2019-05-02T08:46:46.126Z,47.20
2019-05-02T08:47:45.798Z,48.70
2019-05-02T08:48:44.826Z,47.70
2019-05-02T08:49:48.988Z,48.30
2019-05-02T08:50:44.853Z,48.80
2019-05-02T08:51:44.785Z,49.20
2019-05-02T08:52:47.809Z,49.40
2019-05-02T08:53:44.739Z,47.90
2019-05-02T08:54:45.074Z,46.40
2019-05-02T08:55:45.230Z,47.20
2019-05-02T08:56:44.909Z,46.20
2019-05-02T08:57:44.694Z,47.30
2019-05-02T08:58:45.043Z,47.10
2019-05-02T08:59:44.670Z,47.60
2019-05-02T09:00:47.163Z,46.20
2019-05-02T09:01:44.869Z,47.40
2019-05-02T09:02:44.711Z,46.80
2019-05-02T09:04:00.008Z,46.80
2019-05-02T09:04:57.343Z,46.10
2019-05-02T09:05:46.235Z,46.20
2019-05-02T09:06:46.070Z,46.70
2019-05-02T09:07:44.580Z,43.90
2019-05-02T09:08:46.116Z,43.50
2019-05-02T09:09:45.551Z,42.60
2019-05-02T09:10:44.699Z,41.40
2019-05-02T09:11:56.301Z,42.00
2019-05-02T09:12:45.643Z,42.60
2019-05-02T09:13:46.084Z,41.60
2019-05-02T09:14:44.501Z,41.60
2019-05-02T09:15:49.745Z,42.00
2019-05-02T09:16:45.524Z,41.70
2019-05-02T09:17:54.803Z,42.20
2019-05-02T09:18:50.909Z,41.00
2019-05-02T09:19:59.160Z,40.80
2019-05-02T09:20:51.479Z,41.80
2019-05-02T09:21:45.452Z,41.90
2019-05-02T09:22:46.661Z,41.20
2019-05-02T09:23:45.467Z,41.70
2019-05-02T09:24:44.957Z,41.00
2019-05-02T09:25:44.487Z,41.70
2019-05-02T09:26:44.441Z,42.10
2019-05-02T09:27:44.496Z,39.80
2019-05-02T09:28:44.356Z,39.40
2019-05-02T09:29:45.908Z,38.70
2019-05-02T09:30:46.788Z,37.80
2019-05-02T09:31:46.134Z,37.20
2019-05-02T09:32:44.323Z,37.00
2019-05-02T09:33:46.786Z,37.20
2019-05-02T09:34:44.285Z,37.00
2019-05-02T09:35:44.323Z,36.50
2019-05-02T09:36:44.257Z,38.20
2019-05-02T09:37:44.369Z,37.80
2019-05-02T09:38:44.244Z,38.50
2019-05-02T09:39:44.348Z,40.70
2019-05-02T09:40:47.213Z,39.40
2019-05-02T09:41:45.331Z,39.70
2019-05-02T09:42:47.614Z,39.40
2019-05-02T09:43:45.180Z,36.30
2019-05-02T09:44:47.970Z,34.30
2019-05-02T09:45:45.158Z,33.70
2019-05-02T09:46:47.487Z,34.20
2019-05-02T09:47:55.819Z,32.50
2019-05-02T09:48:45.133Z,30.70
2019-05-02T09:49:49.159Z,32.40
2019-05-02T09:50:45.105Z,32.40
2019-05-02T09:51:45.662Z,31.90
2019-05-02T09:52:45.141Z,32.30
2019-05-02T09:53:44.138Z,32.30
2019-05-02T09:54:46.079Z,32.70
2019-05-02T09:55:49.728Z,33.40
2019-05-02T09:56:45.042Z,34.70
2019-05-02T09:57:44.069Z,32.90
2019-05-02T09:58:44.044Z,34.60
2019-05-02T09:59:50.337Z,33.90
2019-05-02T10:00:44.996Z,34.10
2019-05-02T10:01:44.098Z,34.20
2019-05-02T10:02:43.972Z,33.60
2019-05-02T10:03:44.055Z,33.90
2019-05-02T10:04:44.187Z,33.40
2019-05-02T10:05:44.028Z,34.30
2019-05-02T10:06:43.940Z,33.10
2019-05-02T10:07:44.034Z,34.60
2019-05-02T10:08:46.582Z,35.90
2019-05-02T10:09:43.956Z,34.50
2019-05-02T10:10:45.816Z,34.60
2019-05-02T10:11:43.959Z,35.00
2019-05-02T10:12:43.862Z,35.10
2019-05-02T10:13:44.014Z,35.00
2019-05-02T10:14:43.843Z,34.80
2019-05-02T10:15:43.911Z,36.00
2019-05-02T10:16:43.821Z,35.40
2019-05-02T10:17:46.742Z,33.50
2019-05-02T10:18:43.835Z,34.10
2019-05-02T10:19:48.946Z,32.70
2019-05-02T10:20:44.781Z,33.40
2019-05-02T10:21:47.127Z,34.70
2019-05-02T10:22:44.743Z,34.00
2019-05-02T10:23:43.873Z,35.10
2019-05-02T10:24:43.725Z,34.50
2019-05-02T10:25:46.776Z,35.10
2019-05-02T10:26:43.723Z,34.30
2019-05-02T10:27:47.447Z,35.00
2019-05-02T10:28:49.385Z,33.20
2019-05-02T10:29:44.800Z,36.50
2019-05-02T10:30:47.287Z,34.10
2019-05-02T10:31:44.726Z,33.40
2019-05-02T10:32:47.246Z,31.80
2019-05-02T10:33:44.759Z,32.20
2019-05-02T10:34:47.599Z,31.00
2019-05-02T10:35:44.692Z,31.20
2019-05-02T10:36:45.469Z,30.90
2019-05-02T10:37:43.593Z,29.10
2019-05-02T10:38:43.684Z,27.30
2019-05-02T10:39:43.662Z,29.30
2019-05-02T10:40:43.642Z,30.40
2019-05-02T10:41:43.812Z,31.70
2019-05-02T10:42:43.566Z,30.60
2019-05-02T10:43:46.958Z,31.10
2019-05-02T10:44:44.634Z,30.10
2019-05-02T10:45:47.343Z,27.90
2019-05-02T10:46:44.519Z,29.60
2019-05-02T10:47:43.597Z,29.20
2019-05-02T10:48:43.470Z,28.50
2019-05-02T10:49:43.533Z,29.50
2019-05-02T10:50:43.446Z,29.90
2019-05-02T10:51:49.170Z,29.90
2019-05-02T10:52:44.426Z,29.60
2019-05-02T10:53:47.219Z,29.50
2019-05-02T10:54:44.463Z,29.10
2019-05-02T10:55:43.473Z,28.00
2019-05-02T10:56:43.382Z,30.20
2019-05-02T10:57:43.463Z,28.10
2019-05-02T10:58:43.364Z,30.40
2019-05-02T10:59:43.403Z,29.80
2019-05-02T11:00:45.409Z,29.60
2019-05-02T11:01:43.392Z,29.10
2019-05-02T11:02:43.341Z,28.80
2019-05-02T11:03:47.361Z,29.20
2019-05-02T11:04:43.324Z,30.40
2019-05-02T11:05:43.333Z,30.10
2019-05-02T11:06:46.351Z,28.50
2019-05-02T11:07:43.344Z,28.10
2019-05-02T11:08:45.963Z,27.10
2019-05-02T11:09:43.381Z,26.20
2019-05-02T11:10:43.226Z,25.40
2019-05-02T11:11:43.284Z,26.30
2019-05-02T11:12:46.812Z,25.40
2019-05-02T11:13:43.265Z,26.00
2019-05-02T11:14:43.216Z,25.70
2019-05-02T11:15:43.336Z,27.90
2019-05-02T11:16:43.170Z,27.10
2019-05-02T11:17:43.189Z,27.30
2019-05-02T11:18:45.207Z,27.40
2019-05-02T11:19:43.204Z,26.20
2019-05-02T11:20:43.160Z,25.00
2019-05-02T11:21:55.544Z,25.30
2019-05-02T11:22:44.112Z,24.30
2019-05-02T11:23:43.154Z,25.30
2019-05-02T11:24:43.069Z,25.50
2019-05-02T11:25:43.168Z,25.40
2019-05-02T11:26:43.056Z,24.60
2019-05-02T11:27:43.157Z,25.40
2019-05-02T11:28:43.029Z,25.00
2019-05-02T11:29:43.065Z,22.90
2019-05-02T11:30:43.031Z,21.90
2019-05-02T11:31:43.082Z,22.70
2019-05-02T11:32:43.095Z,23.10
2019-05-02T11:33:43.105Z,23.40
2019-05-02T11:34:42.968Z,23.60
2019-05-02T11:35:49.094Z,22.00
2019-05-02T11:36:43.962Z,22.70
2019-05-02T11:37:43.020Z,21.70
2019-05-02T11:38:45.380Z,21.40
2019-05-02T11:39:49.962Z,24.10
2019-05-02T11:40:43.930Z,24.40
2019-05-02T11:41:42.956Z,25.60
2019-05-02T11:42:42.875Z,25.10
2019-05-02T11:43:44.974Z,25.40
2019-05-02T11:44:42.881Z,26.00
2019-05-02T11:45:42.877Z,24.20
2019-05-02T11:46:46.776Z,23.40
2019-05-02T11:48:55.535Z,23.10
2019-05-02T11:49:46.769Z,23.70
2019-05-02T11:50:43.857Z,23.60
2019-05-02T11:51:47.057Z,24.60
2019-05-02T11:52:43.766Z,22.70
2019-05-02T11:53:42.838Z,23.50
2019-05-02T11:54:45.998Z,23.30
2019-05-02T11:55:43.925Z,24.00
2019-05-02T11:56:48.999Z,24.10
2019-05-02T11:57:43.772Z,23.40
2019-05-02T11:58:48.196Z,22.60
2019-05-02T11:59:43.789Z,22.70
2019-05-02T12:00:47.980Z,22.80
2019-05-02T12:01:56.524Z,23.10
2019-05-02T12:02:43.667Z,22.50
2019-05-02T12:03:42.689Z,23.50
2019-05-02T12:04:42.639Z,23.50
2019-05-02T12:05:42.704Z,23.80
2019-05-02T12:06:42.645Z,24.10
2019-05-02T12:07:42.722Z,24.00
2019-05-02T12:08:45.123Z,23.10
2019-05-02T12:09:51.005Z,23.40
2019-05-02T12:10:43.584Z,22.50
2019-05-02T12:11:42.673Z,22.50
2019-05-02T12:12:43.005Z,22.80
2019-05-02T12:13:42.859Z,22.70
2019-05-02T12:14:42.542Z,23.00
2019-05-02T12:15:44.269Z,23.20
2019-05-02T12:16:43.089Z,22.90
2019-05-02T12:17:42.589Z,23.70
2019-05-02T12:18:42.490Z,24.80
2019-05-02T12:19:42.723Z,23.10
2019-05-02T12:20:42.842Z,23.00
2019-05-02T12:21:42.535Z,23.50
2019-05-02T12:22:42.457Z,23.10
2019-05-02T12:23:42.518Z,23.60
2019-05-02T12:24:45.274Z,22.90
2019-05-02T12:25:42.552Z,23.10
2019-05-02T12:26:42.436Z,23.80
2019-05-02T12:27:42.657Z,24.00
2019-05-02T12:28:42.930Z,23.10
2019-05-02T12:29:42.487Z,23.50
2019-05-02T12:30:42.360Z,23.30
2019-05-02T12:31:42.755Z,24.00
2019-05-02T12:32:42.840Z,25.30
2019-05-02T12:33:42.707Z,25.10
2019-05-02T12:34:42.317Z,23.60
2019-05-02T12:35:43.200Z,23.50
2019-05-02T12:36:42.757Z,24.80
2019-05-02T12:37:42.523Z,23.80
2019-05-02T12:38:42.281Z,24.10
2019-05-02T12:39:42.608Z,25.00
2019-05-02T12:40:42.385Z,25.20
2019-05-02T12:41:42.640Z,25.40
2019-05-02T12:42:42.236Z,24.90
2019-05-02T12:43:42.265Z,26.10
2019-05-02T12:44:42.688Z,25.10
2019-05-02T12:45:42.362Z,25.30
2019-05-02T12:46:42.291Z,25.00
2019-05-02T12:47:42.891Z,25.30
2019-05-02T12:48:42.330Z,24.80
2019-05-02T12:49:42.503Z,25.70
2019-05-02T12:50:42.161Z,26.00
2019-05-02T12:51:42.913Z,26.60
2019-05-02T12:52:42.958Z,26.00
2019-05-02T12:53:42.218Z,25.50
2019-05-02T12:54:42.123Z,26.30
2019-05-02T12:55:42.350Z,24.70
2019-05-02T12:56:42.083Z,25.50
2019-05-02T12:57:42.865Z,24.90
2019-05-02T12:58:42.218Z,25.30
2019-05-02T12:59:42.162Z,26.90
2019-05-02T13:00:43.115Z,24.90
2019-05-02T13:01:42.290Z,25.00
2019-05-02T13:02:42.063Z,25.70
2019-05-02T13:03:43.659Z,24.50
2019-05-02T13:04:42.011Z,25.20
2019-05-02T13:05:42.686Z,25.30
2019-05-02T13:06:42.287Z,24.70
2019-05-02T13:07:42.888Z,25.60
2019-05-02T13:08:42.981Z,23.80
2019-05-02T13:09:42.140Z,23.90